Hecla, South Dakota
Current Conditions -  °F | °C
As of 2:53 AM on Wednesday 28 Jan 2015 (Local Time) from KABR Reporting Station
Clear Clear  
Wind Chill: 27°   Ceiling: Unl
Heat Index: 33°   Visibility: 10mi
Dew Point: 30°   Wind: 7mph
Humidity: 89%   Direction: 180°S
Pressure: 29.79"   Gusts: NA
Location:  45.88°N, 98.15°W
Report Text: KABR 280853Z AUTO 18006KT 10SM CLR 01/M01 A2979 RMK AO2 SLP099 T00061011 56019
Loading
Personal Weather Stations






























Interactive Weather Map New forecast layout! Learn more

10-Day Weather Forecast

Advertisements
Track Severe Weather on mobile